Time;durP1;ratioP1;P1;durP2;ratioP2;P2;SDS_P1;SDS_P2;PMS_P1;PMS_P2;Temp;Humidity;BMP_temperature;BMP_pressure;BME280_temperature;BME280_humidity;BME280_pressure;Samples;Min_cycle;Max_cycle;Signal;HPM_P1;HPM_P2
2022/10/09 00:02:09;;;;;;;7.97;5.23;;;;;;;7.90;73.32;99823.03;5153151;27;39848;-77
2022/10/09 00:04:36;;;;;;;5.83;4.97;;;;;;;7.84;72.93;99828.53;5135321;27;41681;-75
2022/10/09 00:07:04;;;;;;;5.57;4.40;;;;;;;7.79;72.83;99835.75;5118045;27;41909;-79
2022/10/09 00:09:32;;;;;;;5.50;4.70;;;;;;;7.74;73.09;99828.00;5135815;27;42282;-79
2022/10/09 00:12:00;;;;;;;6.60;4.23;;;;;;;7.60;73.06;99808.28;5118333;27;40261;-77
2022/10/09 00:14:27;;;;;;;6.17;4.57;;;;;;;7.66;73.14;99823.91;5135672;27;42673;-77
2022/10/09 00:16:55;;;;;;;5.57;4.50;;;;;;;7.64;73.19;99825.75;5117779;27;43506;-78
2022/10/09 00:19:24;;;;;;;6.67;4.30;;;;;;;7.62;73.08;99827.56;5135844;27;42914;-77
2022/10/09 00:21:51;;;;;;;5.30;4.27;;;;;;;7.57;72.59;99825.94;5153279;27;40101;-76
2022/10/09 00:24:19;;;;;;;5.77;4.30;;;;;;;7.56;72.91;99828.63;5132712;27;42573;-75
2022/10/09 00:26:48;;;;;;;7.77;4.70;;;;;;;7.52;72.65;99827.88;5135625;27;44088;-76
2022/10/09 00:29:15;;;;;;;5.70;4.47;;;;;;;7.49;72.76;99825.34;5135483;27;41131;-79
2022/10/09 00:31:43;;;;;;;6.93;4.90;;;;;;;7.46;72.79;99833.34;5135302;27;39752;-76
2022/10/09 00:34:10;;;;;;;4.87;3.77;;;;;;;7.44;73.35;99831.69;5117300;27;40288;-76
2022/10/09 00:36:39;;;;;;;7.20;4.57;;;;;;;7.35;73.30;99819.69;5117098;27;41920;-76
2022/10/09 00:39:07;;;;;;;7.47;4.50;;;;;;;7.35;72.94;99830.22;5137186;27;42384;-79
2022/10/09 00:41:34;;;;;;;5.97;4.70;;;;;;;7.32;73.13;99830.31;5120319;27;40159;-76
2022/10/09 00:44:03;;;;;;;6.70;4.10;;;;;;;7.28;72.93;99828.72;5138128;27;41670;-76
2022/10/09 00:46:38;;;;;;;5.40;4.10;;;;;;;7.18;73.13;99817.59;5137450;27;42819;-78
2022/10/09 00:49:14;;;;;;;4.73;4.23;;;;;;;7.24;72.80;99832.38;5134581;27;42305;-77
2022/10/09 00:51:46;;;;;;;4.80;4.30;;;;;;;7.18;72.92;99816.75;5135174;27;39894;-75
2022/10/09 00:54:17;;;;;;;6.27;4.13;;;;;;;7.18;72.93;99827.28;5153447;27;41274;-76
2022/10/09 00:56:45;;;;;;;4.70;3.80;;;;;;;7.00;73.01;99806.84;5120253;27;43030;-76
2022/10/09 00:59:14;;;;;;;4.33;3.80;;;;;;;7.15;73.19;99832.69;5137893;27;41155;-77
2022/10/09 01:01:42;;;;;;;5.43;3.93;;;;;;;7.14;72.87;99833.59;5115429;27;38361;-76
2022/10/09 01:04:10;;;;;;;4.93;4.00;;;;;;;7.07;72.92;99825.00;5137760;27;40328;-76
2022/10/09 01:06:54;;;;;;;6.57;4.17;;;;;;;7.04;72.90;99813.75;5156164;27;43660;-76
2022/10/09 01:09:26;;;;;;;4.97;4.03;;;;;;;7.10;72.69;99822.28;5123222;27;42409;-75
2022/10/09 01:11:59;;;;;;;4.87;4.37;;;;;;;7.06;73.03;99825.91;5137057;27;40105;-77
2022/10/09 01:14:30;;;;;;;4.63;3.33;;;;;;;7.08;72.99;99825.88;5118641;27;40781;-78
2022/10/09 01:17:11;;;;;;;5.90;3.73;;;;;;;7.08;73.10;99828.50;5153923;27;42713;-76
2022/10/09 01:19:55;;;;;;;4.10;3.70;;;;;;;7.05;73.35;99820.69;5153246;27;42130;-80
2022/10/09 01:22:35;;;;;;;7.03;4.53;;;;;;;7.03;73.71;99814.66;5119753;27;38493;-76
2022/10/09 01:25:07;;;;;;;7.57;4.60;;;;;;;7.01;73.60;99814.69;5153593;27;42685;-77
2022/10/09 01:27:38;;;;;;;6.70;4.17;;;;;;;6.88;73.47;99789.66;5155037;27;42673;-79
2022/10/09 01:30:08;;;;;;;8.30;4.87;;;;;;;6.99;73.21;99815.66;5135486;27;43027;-77
2022/10/09 01:32:39;;;;;;;5.77;4.37;;;;;;;6.87;73.16;99794.97;5120231;27;39650;-78
2022/10/09 01:35:11;;;;;;;6.50;3.90;;;;;;;6.97;73.11;99814.81;5133289;27;41597;-76
2022/10/09 01:37:42;;;;;;;7.27;4.40;;;;;;;6.99;73.78;99808.59;5135497;27;43886;-76
2022/10/09 01:40:12;;;;;;;6.43;4.97;;;;;;;7.03;73.88;99812.88;5137106;27;43587;-77
2022/10/09 01:42:41;;;;;;;7.47;5.57;;;;;;;7.05;74.21;99804.91;5155141;27;39926;-76
2022/10/09 01:45:10;;;;;;;8.47;6.30;;;;;;;7.07;73.89;99808.34;5119891;27;41077;-79
2022/10/09 01:47:38;;;;;;;6.40;5.67;;;;;;;7.08;73.84;99810.94;5136573;27;43576;-77
2022/10/09 01:50:14;;;;;;;6.53;5.30;;;;;;;7.11;73.54;99802.06;5118867;27;41038;-78
2022/10/09 01:52:47;;;;;;;6.43;5.27;;;;;;;7.14;73.67;99804.63;5136564;27;38903;-79
2022/10/09 01:55:27;;;;;;;5.97;4.93;;;;;;;7.17;73.32;99804.53;5152227;27;41786;-76
2022/10/09 01:58:04;;;;;;;6.43;4.70;;;;;;;7.17;73.15;99804.53;5135699;27;42822;-77
2022/10/09 02:00:36;;;;;;;6.07;4.63;;;;;;;7.17;73.19;99809.78;5152042;27;42092;-78
2022/10/09 02:03:08;;;;;;;5.53;4.50;;;;;;;7.18;73.39;99801.81;5154303;27;39995;-77
2022/10/09 02:05:37;;;;;;;5.80;4.57;;;;;;;7.21;73.49;99803.47;5153268;27;41655;-78
2022/10/09 02:08:05;;;;;;;6.10;5.00;;;;;;;7.07;73.37;99771.47;5119891;27;42828;-79
2022/10/09 02:10:35;;;;;;;6.70;5.10;;;;;;;7.25;73.64;99802.47;5120329;27;41469;-80
2022/10/09 02:13:04;;;;;;;8.50;4.90;;;;;;;7.26;73.41;99793.66;5120459;27;40007;-76
2022/10/09 02:15:39;;;;;;;7.00;4.80;;;;;;;7.15;73.97;99775.59;5120381;27;40852;-78
2022/10/09 02:18:12;;;;;;;8.00;5.77;;;;;;;7.29;73.98;99796.19;5137521;27;44032;-78
2022/10/09 02:20:44;;;;;;;9.97;5.63;;;;;;;7.32;73.63;99793.44;5152908;27;43566;-76
2022/10/09 02:23:15;;;;;;;6.73;5.50;;;;;;;7.33;73.68;99784.63;5137413;27;39131;-77
2022/10/09 02:25:43;;;;;;;8.30;5.10;;;;;;;7.37;73.62;99791.50;5155998;27;41575;-79
2022/10/09 02:28:12;;;;;;;6.67;5.23;;;;;;;7.39;74.23;99794.97;5155499;27;43506;-79
2022/10/09 02:30:46;;;;;;;5.97;4.83;;;;;;;7.39;74.24;99783.56;5154121;27;42049;-78
2022/10/09 02:33:14;;;;;;;8.53;5.90;;;;;;;7.42;74.46;99784.28;5135075;27;40397;-78
2022/10/09 02:35:43;;;;;;;7.80;6.20;;;;;;;7.43;74.59;99779.88;5136201;27;41778;-76
2022/10/09 02:38:10;;;;;;;9.13;5.40;;;;;;;7.39;74.74;99773.88;5118567;27;43792;-77
2022/10/09 02:40:38;;;;;;;8.27;5.10;;;;;;;7.24;74.79;99748.06;5119023;27;41570;-76
2022/10/09 02:43:05;;;;;;;7.17;4.97;;;;;;;7.48;74.43;99781.47;5135940;27;38833;-79
2022/10/09 02:45:34;;;;;;;7.10;5.10;;;;;;;7.32;74.67;99750.41;5154503;27;41650;-78
2022/10/09 02:48:02;;;;;;;7.77;5.77;;;;;;;7.55;75.27;99771.53;5118414;27;44874;-76
2022/10/09 02:50:30;;;;;;;8.00;5.27;;;;;;;7.58;75.38;99779.34;5154366;27;42193;-78
2022/10/09 02:52:57;;;;;;;7.33;5.30;;;;;;;7.60;75.55;99780.16;5154120;27;40076;-77
2022/10/09 02:55:25;;;;;;;7.83;5.37;;;;;;;7.62;75.81;99777.47;5154214;27;41979;-77
2022/10/09 02:57:53;;;;;;;6.40;5.37;;;;;;;7.61;75.51;99776.63;5135716;27;43021;-79
2022/10/09 03:00:20;;;;;;;5.60;4.77;;;;;;;7.68;75.69;99779.88;5154439;27;42179;-80
2022/10/09 03:02:49;;;;;;;8.17;5.50;;;;;;;7.69;76.14;99776.31;5135529;27;39022;-76
2022/10/09 03:05:17;;;;;;;6.30;5.20;;;;;;;7.71;76.08;99774.50;5119540;27;40812;-76
2022/10/09 03:07:50;;;;;;;6.90;5.07;;;;;;;7.69;76.37;99779.81;5136492;27;42821;-78
2022/10/09 03:10:18;;;;;;;5.43;4.37;;;;;;;7.74;76.17;99790.22;5119692;27;40954;-80
2022/10/09 03:12:46;;;;;;;5.53;4.73;;;;;;;7.74;75.99;99787.59;5136487;27;41746;-77
2022/10/09 03:15:14;;;;;;;6.40;5.30;;;;;;;7.77;76.09;99783.06;5123216;27;41813;-76
2022/10/09 03:17:42;;;;;;;6.13;4.63;;;;;;;7.78;75.99;99787.44;5140430;27;42082;-77
2022/10/09 03:20:11;;;;;;;4.97;4.47;;;;;;;7.81;76.46;99782.00;5140878;27;43336;-76
2022/10/09 03:22:39;;;;;;;4.87;4.47;;;;;;;7.81;76.22;99784.66;5158588;27;42108;-77
2022/10/09 03:25:08;;;;;;;4.33;3.93;;;;;;;7.79;76.41;99777.75;5123229;27;40659;-77
2022/10/09 03:27:35;;;;;;;4.70;4.23;;;;;;;7.85;76.21;99783.63;5136716;27;42920;-79
2022/10/09 03:30:03;;;;;;;8.63;4.80;;;;;;;7.88;75.99;99787.94;5136564;27;42668;-76
2022/10/09 03:32:31;;;;;;;4.73;4.30;;;;;;;7.92;75.97;99784.25;5136126;27;40076;-78
2022/10/09 03:34:59;;;;;;;4.40;4.00;;;;;;;7.91;76.62;99779.94;5135086;27;42067;-80
2022/10/09 03:37:28;;;;;;;4.87;4.47;;;;;;;7.98;76.17;99788.47;5133811;27;42658;-78
2022/10/09 03:39:56;;;;;;;4.43;4.03;;;;;;;8.00;76.35;99790.13;5135264;27;40760;-77
2022/10/09 03:42:23;;;;;;;4.63;4.23;;;;;;;8.01;76.54;99799.75;5134728;27;40268;-79
2022/10/09 03:44:51;;;;;;;5.10;4.60;;;;;;;8.03;76.26;99797.94;5134920;27;42155;-76
2022/10/09 03:47:19;;;;;;;5.00;4.40;;;;;;;8.04;76.62;99802.25;5134778;27;43558;-80
2022/10/09 03:49:46;;;;;;;5.27;4.77;;;;;;;7.94;76.59;99785.06;5153529;27;42158;-78
2022/10/09 03:52:14;;;;;;;5.07;4.13;;;;;;;8.02;76.41;99801.50;5117477;27;40092;-79
2022/10/09 03:54:43;;;;;;;5.20;4.80;;;;;;;8.04;77.08;99804.91;5117561;27;40995;-77
2022/10/09 03:57:11;;;;;;;5.13;4.63;;;;;;;8.02;76.99;99798.84;5117480;27;42718;-76
2022/10/09 03:59:38;;;;;;;4.67;4.27;;;;;;;8.05;76.94;99795.22;5134940;27;41675;-79
2022/10/09 04:02:06;;;;;;;5.30;4.80;;;;;;;8.08;76.71;99800.38;5117303;27;39127;-78
2022/10/09 04:04:34;;;;;;;10.50;4.83;;;;;;;8.10;76.80;99798.56;5117647;27;40724;-79
2022/10/09 04:07:02;;;;;;;4.00;3.67;;;;;;;8.13;76.72;99804.59;5152868;27;43789;-79
2022/10/09 04:09:29;;;;;;;5.07;4.37;;;;;;;8.13;77.05;99801.94;5117300;27;41209;-79
2022/10/09 04:11:58;;;;;;;4.97;4.47;;;;;;;8.12;77.15;99797.59;5134408;27;41915;-78
2022/10/09 04:14:26;;;;;;;6.70;6.07;;;;;;;8.14;77.16;99795.75;5136010;27;41718;-76
2022/10/09 04:16:54;;;;;;;5.23;4.73;;;;;;;8.04;77.08;99786.44;5118031;27;43480;-76
2022/10/09 04:19:22;;;;;;;5.27;4.47;;;;;;;8.14;77.36;99801.03;5154040;27;43177;-77
2022/10/09 04:21:49;;;;;;;5.90;5.30;;;;;;;8.06;77.00;99778.47;5117536;27;39059;-78
2022/10/09 04:24:17;;;;;;;5.50;4.90;;;;;;;8.15;77.36;99792.19;5118119;27;41315;-78
2022/10/09 04:26:44;;;;;;;5.43;4.93;;;;;;;8.16;77.48;99798.34;5153765;27;42648;-77
2022/10/09 04:29:13;;;;;;;4.70;4.30;;;;;;;8.16;77.41;99804.44;5154138;27;42393;-79
2022/10/09 04:31:41;;;;;;;4.50;4.10;;;;;;;8.17;77.04;99800.88;5117889;27;39091;-79
2022/10/09 04:34:09;;;;;;;5.27;4.80;;;;;;;8.16;77.32;99799.16;5135197;27;43044;-80
2022/10/09 04:36:36;;;;;;;6.00;5.40;;;;;;;8.23;77.31;99800.69;5153636;27;42544;-78
2022/10/09 04:39:05;;;;;;;5.30;4.80;;;;;;;8.17;77.12;99782.41;5117169;27;42461;-78
2022/10/09 04:41:32;;;;;;;5.83;5.23;;;;;;;8.22;77.00;99798.09;5151737;27;39817;-78
2022/10/09 04:44:00;;;;;;;7.37;5.27;;;;;;;8.20;76.96;99803.44;5116978;27;42506;-77
2022/10/09 04:46:29;;;;;;;6.27;4.67;;;;;;;8.21;77.31;99805.16;5133887;27;42939;-78
2022/10/09 04:48:57;;;;;;;6.53;5.87;;;;;;;8.22;77.65;99793.69;5152767;27;42144;-80
2022/10/09 04:51:25;;;;;;;4.93;4.43;;;;;;;8.20;77.39;99806.06;5133613;27;40364;-79
2022/10/09 08:57:01;;;;;;;3.30;3.00;;;;;;;24.67;37.12;99888.69;5109406;28;20564;-82
2022/10/09 08:59:29;;;;;;;3.83;3.53;;;;;;;24.88;36.55;99896.41;5108229;28;38901;-80
2022/10/09 09:02:05;;;;;;;3.43;3.03;;;;;;;24.19;38.75;99872.09;5108087;28;42257;-79
2022/10/09 09:04:56;;;;;;;3.63;3.33;;;;;;;23.89;37.07;99897.72;5104465;28;42668;-77
2022/10/09 09:07:32;;;;;;;5.70;3.13;;;;;;;23.74;37.88;99875.75;5090854;28;40951;-86
2022/10/09 09:10:05;;;;;;;5.20;2.90;;;;;;;24.75;36.06;99887.00;5140069;27;39708;-79
2022/10/09 09:12:43;;;;;;;3.43;2.73;;;;;;;25.59;33.78;99897.88;5125417;27;41255;-84
2022/10/09 09:15:29;;;;;;;3.53;2.17;;;;;;;25.99;33.41;99902.53;5106925;28;42785;-80
2022/10/09 09:18:14;;;;;;;4.50;2.97;;;;;;;25.57;34.69;99894.50;5139508;27;43007;-79
2022/10/09 09:20:51;;;;;;;3.20;2.80;;;;;;;24.41;36.53;99877.00;5140670;27;40223;-80
2022/10/09 09:23:23;;;;;;;3.37;2.70;;;;;;;23.22;38.49;99853.94;5106085;28;41852;-81
2022/10/09 09:25:52;;;;;;;4.10;3.00;;;;;;;22.86;39.37;99847.59;5107859;28;42785;-80
2022/10/09 09:28:26;;;;;;;3.20;2.53;;;;;;;22.79;39.40;99837.53;5107858;28;42196;-81
2022/10/09 09:30:57;;;;;;;5.33;2.50;;;;;;;22.17;41.07;99833.59;5124412;27;39219;-80
2022/10/09 09:33:37;;;;;;;3.90;2.60;;;;;;;21.54;41.26;99833.22;5104078;28;42435;-83
2022/10/09 09:36:09;;;;;;;4.07;2.63;;;;;;;21.05;43.19;99816.13;5139972;27;43315;-82
2022/10/09 09:38:37;;;;;;;3.70;2.60;;;;;;;20.66;43.95;99808.91;5104827;28;43564;-79
2022/10/09 09:41:05;;;;;;;4.07;2.53;;;;;;;20.26;43.50;99795.44;5089339;28;39259;-82
2022/10/09 09:43:35;;;;;;;4.53;2.07;;;;;;;20.24;43.97;99792.88;5089667;28;40747;-80
2022/10/09 09:46:03;;;;;;;2.43;2.07;;;;;;;20.24;43.49;99794.72;5106031;28;42845;-78
2022/10/09 09:48:35;;;;;;;2.80;2.30;;;;;;;20.04;43.44;99782.97;5106549;28;41195;-79
2022/10/09 09:51:05;;;;;;;3.27;2.10;;;;;;;20.03;44.99;99752.56;5106665;28;39935;-78
2022/10/09 09:53:36;;;;;;;3.90;2.03;;;;;;;20.03;44.05;99783.97;5107600;28;42090;-81
2022/10/09 09:56:05;;;;;;;2.77;2.40;;;;;;;19.75;45.28;99774.78;5106724;28;41457;-79
2022/10/09 09:58:38;;;;;;;3.47;2.40;;;;;;;19.78;46.01;99773.66;5105528;28;42610;-83
2022/10/09 10:01:07;;;;;;;5.13;2.13;;;;;;;20.16;44.58;99779.22;5139821;27;40640;-80
2022/10/09 10:03:35;;;;;;;3.33;2.00;;;;;;;20.95;43.26;99782.94;5107325;28;41596;-79
2022/10/09 10:06:03;;;;;;;3.83;2.23;;;;;;;21.21;42.76;99782.44;5104982;28;42804;-79
2022/10/09 10:08:33;;;;;;;2.90;2.00;;;;;;;21.72;41.72;99771.34;5093789;28;41227;-80
2022/10/09 10:11:05;;;;;;;2.20;1.90;;;;;;;22.65;40.46;99786.66;5095742;28;39665;-82
2022/10/09 10:13:38;;;;;;;2.10;1.77;;;;;;;23.04;40.15;99790.88;5092609;28;41748;-79
2022/10/09 10:16:08;;;;;;;3.40;2.10;;;;;;;22.91;38.57;99798.50;5094786;28;43017;-80
2022/10/09 10:18:40;;;;;;;2.03;1.70;;;;;;;22.46;38.76;99764.19;5096292;28;45060;-76
2022/10/09 10:21:12;;;;;;;3.40;1.97;;;;;;;22.91;38.92;99793.09;5076486;28;39183;-78
2022/10/09 10:23:44;;;;;;;2.47;1.73;;;;;;;22.83;38.66;99793.03;5089165;28;41736;-83
2022/10/09 10:26:23;;;;;;;2.87;1.80;;;;;;;22.32;39.95;99753.88;5108798;28;44791;-79
2022/10/09 10:28:58;;;;;;;3.70;1.90;;;;;;;22.25;40.55;99757.31;5075554;28;41252;-84
2022/10/09 10:31:41;;;;;;;2.77;1.60;;;;;;;22.31;39.58;99778.31;5092179;28;38833;-85
2022/10/09 10:34:17;;;;;;;2.77;2.00;;;;;;;22.65;37.99;99781.28;5092080;28;40706;-86
2022/10/09 10:36:58;;;;;;;2.87;1.70;;;;;;;23.37;36.31;99751.50;5108799;28;42831;-86
2022/10/09 10:39:32;;;;;;;1.67;1.50;;;;;;;24.83;36.09;99778.69;5074736;28;43159;-85
2022/10/09 10:42:04;;;;;;;2.53;1.60;;;;;;;26.37;32.87;99793.22;5123472;27;39906;-82
2022/10/09 10:44:42;;;;;;;4.03;1.70;;;;;;;28.12;29.86;99812.56;5074673;28;40821;-88
2022/10/09 10:47:18;;;;;;;2.33;1.83;;;;;;;29.80;28.03;99820.63;5108943;28;43617;-81
2022/10/09 10:49:46;;;;;;;2.40;1.60;;;;;;;31.48;26.04;99820.44;5092491;28;41244;-86
2022/10/09 10:52:33;;;;;;;2.23;1.70;;;;;;;33.06;24.08;99840.41;5093088;28;38995;-85
2022/10/09 10:55:41;;;;;;;;;;;;;;;;;;;;;
2022/10/09 10:58:30;;;;;;;2.72;1.52;;;;;;;35.02;21.33;99831.91;5091606;28;44099;-85
2022/10/09 11:02:01;;;;;;;1.75;1.60;;;;;;;35.11;20.15;99792.84;5065394;28;43224;-82
2022/10/09 11:04:51;;;;;;;3.55;1.55;;;;;;;35.90;20.30;99819.25;5091921;28;39171;-90
2022/10/09 11:07:30;;;;;;;1.88;1.30;;;;;;;36.56;18.84;99829.16;5074809;28;41585;-85
2022/10/09 11:13:32;;;;;;;1.77;1.27;;;;;;;36.92;18.48;99767.28;5077699;28;43193;-81
2022/10/09 11:16:07;;;;;;;2.22;1.38;;;;;;;37.19;18.80;99786.94;5088665;28;40778;-89
2022/10/09 11:18:52;;;;;;;2.63;1.50;;;;;;;36.47;18.92;99775.44;5123133;27;41570;-86
2022/10/09 11:21:40;;;;;;;3.00;1.50;;;;;;;35.31;20.93;99776.06;5089516;28;42739;-86
2022/10/09 11:24:38;;;;;;;1.97;1.50;;;;;;;33.69;22.18;99760.84;5108653;28;41331;-80
2022/10/09 11:27:13;;;;;;;2.33;1.60;;;;;;;34.09;22.16;99733.03;5069536;28;39176;-87
2022/10/09 11:29:46;;;;;;;1.80;1.50;;;;;;;36.00;20.66;99752.47;5073758;28;42500;-82
2022/10/09 11:32:18;;;;;;;1.75;1.40;;;;;;;37.77;18.99;99762.84;5088415;28;43560;-80
2022/10/09 11:34:54;;;;;;;2.45;1.50;;;;;;;39.19;16.89;99773.22;5092025;28;42166;-80
2022/10/09 11:37:27;;;;;;;2.92;1.20;;;;;;;39.91;15.80;99754.25;5107945;28;38755;-85
2022/10/09 11:39:56;;;;;;;1.73;1.30;;;;;;;41.01;15.80;99765.44;5087991;28;42565;-83
2022/10/09 11:42:26;;;;;;;1.35;1.08;;;;;;;42.11;14.88;99752.00;5090852;28;42402;-85
2022/10/09 11:45:05;;;;;;;3.25;1.42;;;;;;;42.89;14.41;99744.81;5107792;28;42160;-85
2022/10/09 11:47:40;;;;;;;3.53;1.45;;;;;;;43.57;13.71;99744.97;5088075;28;40838;-81
2022/10/09 11:50:21;;;;;;;1.85;1.10;;;;;;;44.15;13.28;99736.66;5089015;28;42660;-86
2022/10/09 11:52:55;;;;;;;1.55;1.10;;;;;;;44.34;12.98;99722.75;5088701;28;42784;-88
2022/10/09 11:55:26;;;;;;;1.40;1.20;;;;;;;44.52;13.11;99726.75;5073754;28;41016;-88
2022/10/09 11:57:54;;;;;;;2.80;1.13;;;;;;;43.98;12.60;99716.72;5091089;28;41879;-91
2022/10/09 12:00:31;;;;;;;2.17;1.13;;;;;;;43.35;13.98;99706.34;5074607;28;42285;-86
2022/10/09 12:03:02;;;;;;;1.40;1.25;;;;;;;43.12;13.20;99709.84;5123227;27;42864;-85
2022/10/09 12:05:39;;;;;;;2.75;1.10;;;;;;;42.45;12.87;99708.47;5089520;28;42160;-86
2022/10/09 12:08:11;;;;;;;1.05;0.85;;;;;;;41.53;13.60;99696.63;5074015;28;40231;-83
2022/10/09 12:10:42;;;;;;;1.75;1.25;;;;;;;40.95;13.40;99705.38;5107615;28;40525;-88
2022/10/09 12:13:29;;;;;;;2.92;1.20;;;;;;;41.69;13.59;99696.63;5073517;28;42795;-83
2022/10/09 12:15:59;;;;;;;1.70;1.10;;;;;;;42.50;12.46;99690.91;5107601;28;43156;-84
2022/10/09 12:18:30;;;;;;;3.35;1.30;;;;;;;42.91;12.75;99683.19;5073548;28;38875;-86
2022/10/09 12:21:04;;;;;;;1.48;1.15;;;;;;;42.98;11.99;99698.50;5074433;28;41985;-86
2022/10/09 12:23:34;;;;;;;2.35;1.48;;;;;;;42.25;13.05;99663.97;5123146;27;43684;-86
2022/10/09 12:26:03;;;;;;;1.88;1.00;;;;;;;41.60;13.12;99647.13;5090591;28;42387;-86
2022/10/09 12:28:35;;;;;;;2.65;1.40;;;;;;;41.72;13.34;99665.47;5074035;28;39988;-88
2022/10/09 12:31:07;;;;;;;2.55;1.30;;;;;;;41.29;13.27;99620.44;5073760;28;42098;-84
2022/10/09 12:33:39;;;;;;;3.38;1.73;;;;;;;41.04;13.71;99648.19;5073692;28;41964;-86
2022/10/09 12:36:13;;;;;;;1.88;1.60;;;;;;;39.71;14.73;99646.69;5074048;28;42330;-85
2022/10/09 12:38:42;;;;;;;5.60;1.50;;;;;;;37.63;16.47;99630.47;5073689;28;38923;-83
2022/10/09 12:41:19;;;;;;;2.45;1.70;;;;;;;35.79;18.09;99618.84;5107644;28;42455;-83
2022/10/09 12:43:49;;;;;;;1.43;1.33;;;;;;;34.13;19.30;99572.00;5090579;28;42087;-86
2022/10/09 12:46:26;;;;;;;2.47;1.53;;;;;;;33.64;20.01;99593.06;5073900;28;41810;-86
2022/10/09 12:48:54;;;;;;;2.47;1.93;;;;;;;33.42;19.75;99569.81;5107566;28;41484;-86
2022/10/09 12:51:25;;;;;;;1.77;1.50;;;;;;;32.67;21.16;99563.41;5091005;28;41760;-87
2022/10/09 12:53:54;;;;;;;3.67;1.70;;;;;;;31.63;22.40;99566.41;5089662;28;43129;-82
2022/10/09 12:56:25;;;;;;;1.87;1.33;;;;;;;30.67;22.68;99534.00;5089934;28;43065;-82
2022/10/09 12:58:54;;;;;;;2.00;1.80;;;;;;;30.10;23.21;99542.66;5089582;28;39876;-85
2022/10/09 13:01:22;;;;;;;3.93;1.73;;;;;;;30.01;24.47;99532.97;5091653;28;41830;-80
2022/10/09 13:03:57;;;;;;;2.07;1.60;;;;;;;30.23;23.77;99523.59;5091154;28;43403;-84
2022/10/09 13:06:32;;;;;;;1.50;1.30;;;;;;;30.56;23.21;99531.03;5090290;28;41795;-84
2022/10/09 13:09:04;;;;;;;2.40;1.60;;;;;;;30.95;23.25;99514.66;5107225;28;39146;-82
2022/10/09 13:11:36;;;;;;;1.33;1.23;;;;;;;31.78;22.61;99510.31;5088796;28;41612;-83
2022/10/09 13:14:04;;;;;;;2.30;1.43;;;;;;;33.15;22.06;99520.63;5090653;28;42508;-83
2022/10/09 13:16:43;;;;;;;1.60;1.50;;;;;;;34.39;20.14;99513.09;5073478;28;41300;-86
2022/10/09 13:19:23;;;;;;;1.60;1.40;;;;;;;35.34;19.72;99505.63;5090864;28;40089;-80
2022/10/09 13:22:07;;;;;;;1.97;1.40;;;;;;;36.31;19.14;99520.41;5072643;28;41938;-81
2022/10/09 13:24:35;;;;;;;1.57;1.47;;;;;;;36.99;19.09;99516.66;5090838;28;43010;-83
2022/10/09 13:27:04;;;;;;;1.70;1.40;;;;;;;37.56;18.30;99508.16;5091119;28;43307;-88
2022/10/09 13:29:32;;;;;;;2.03;1.37;;;;;;;37.95;17.25;99525.56;5090872;28;40299;-82
2022/10/09 13:32:01;;;;;;;1.80;1.30;;;;;;;38.10;16.94;99528.50;5106681;28;41093;-82
2022/10/09 13:34:29;;;;;;;2.53;1.30;;;;;;;38.06;16.47;99507.97;5072669;28;41827;-84
2022/10/09 13:36:58;;;;;;;1.50;1.30;;;;;;;37.99;16.46;99526.69;5089849;28;42996;-83
2022/10/09 13:39:28;;;;;;;2.80;1.40;;;;;;;38.00;16.84;99509.00;5091028;28;40046;-85
2022/10/09 13:41:58;;;;;;;1.83;1.33;;;;;;;38.09;16.64;99504.72;5089167;28;41859;-88
2022/10/09 13:44:26;;;;;;;1.47;1.37;;;;;;;38.15;16.84;99510.31;5093287;28;41461;-90
2022/10/09 13:46:54;;;;;;;1.40;1.10;;;;;;;38.19;16.71;99505.94;5093839;28;41137;-86
2022/10/09 13:49:22;;;;;;;3.20;1.30;;;;;;;38.24;16.57;99504.03;5094781;28;41027;-83
2022/10/09 13:51:50;;;;;;;3.03;1.17;;;;;;;38.27;16.68;99508.22;5093033;28;41455;-83
2022/10/09 13:54:18;;;;;;;1.63;1.33;;;;;;;38.20;17.07;99497.38;5109772;28;43091;-85
2022/10/09 13:56:47;;;;;;;2.47;1.30;;;;;;;38.19;16.52;99498.47;5092884;28;42969;-85
2022/10/09 13:59:15;;;;;;;1.47;1.37;;;;;;;38.05;16.50;99500.78;5075575;28;38907;-87
2022/10/09 14:01:43;;;;;;;1.57;1.20;;;;;;;37.68;16.04;99499.75;5109708;28;40948;-80
2022/10/09 14:04:22;;;;;;;1.93;1.20;;;;;;;37.21;16.83;99469.81;5093052;28;42141;-85
2022/10/09 14:06:50;;;;;;;1.27;1.17;;;;;;;37.15;16.72;99490.09;5091292;28;42312;-84
2022/10/09 14:09:17;;;;;;;1.20;1.10;;;;;;;36.83;17.00;99480.78;5092934;28;38824;-83
2022/10/09 14:11:47;;;;;;;1.50;0.97;;;;;;;36.64;17.01;99464.41;5093766;28;42023;-85
2022/10/09 14:14:14;;;;;;;1.17;1.17;;;;;;;36.67;17.08;99472.19;5092588;28;42836;-85
2022/10/09 14:16:42;;;;;;;1.57;1.20;;;;;;;36.33;16.47;99459.47;5092278;28;41649;-88
2022/10/09 14:19:10;;;;;;;1.77;1.10;;;;;;;35.88;16.90;99454.72;5075431;28;40048;-87
2022/10/09 14:21:38;;;;;;;1.43;1.30;;;;;;;35.50;17.23;99455.28;5075723;28;42086;-82
2022/10/09 14:24:06;;;;;;;4.27;1.30;;;;;;;34.21;17.67;99436.97;5126616;27;42568;-83
2022/10/09 14:26:34;;;;;;;1.53;1.20;;;;;;;32.64;19.04;99451.44;5092468;28;42515;-82
2022/10/09 14:29:03;;;;;;;2.13;1.27;;;;;;;31.02;19.65;99436.16;5126934;27;39810;-81
2022/10/09 14:31:31;;;;;;;1.93;1.10;;;;;;;29.70;21.18;99401.53;5092277;28;42652;-82
2022/10/09 14:33:59;;;;;;;1.60;1.00;;;;;;;28.87;22.15;99420.63;5092255;28;42275;-81
2022/10/09 14:36:28;;;;;;;2.40;1.10;;;;;;;27.91;23.03;99391.25;5092060;28;41124;-82
2022/10/09 14:38:56;;;;;;;1.27;1.17;;;;;;;27.09;23.53;99401.53;5092081;28;39801;-80
2022/10/09 14:41:23;;;;;;;2.97;1.10;;;;;;;26.45;24.69;99387.59;5074948;28;42940;-81
2022/10/09 14:43:56;;;;;;;1.33;1.10;;;;;;;25.94;25.67;99379.19;5093035;28;42590;-81
2022/10/09 14:46:27;;;;;;;2.43;1.27;;;;;;;25.20;25.90;99364.34;5075697;28;41599;-81
2022/10/09 14:48:56;;;;;;;2.20;1.10;;;;;;;24.84;26.69;99377.50;5075123;28;39626;-81
2022/10/09 14:51:26;;;;;;;1.23;0.90;;;;;;;24.27;27.21;99352.38;5092905;28;41859;-80
2022/10/09 14:53:57;;;;;;;2.10;1.17;;;;;;;24.00;28.33;99359.81;5091595;28;43498;-81
2022/10/09 14:56:25;;;;;;;1.10;0.90;;;;;;;23.72;29.41;99350.34;5091411;28;42160;-80
2022/10/09 14:58:53;;;;;;;2.87;1.07;;;;;;;23.44;29.90;99346.22;5091811;28;38846;-81
2022/10/09 15:01:22;;;;;;;2.00;1.10;;;;;;;23.01;29.72;99340.00;5074843;28;42334;-81
2022/10/09 15:03:52;;;;;;;1.03;0.90;;;;;;;22.77;29.66;99348.00;5092734;28;43602;-81
2022/10/09 15:06:22;;;;;;;1.20;1.10;;;;;;;22.46;30.56;99334.97;5091397;28;42909;-82
2022/10/09 15:08:52;;;;;;;1.80;1.17;;;;;;;22.18;30.76;99336.13;5074909;28;38827;-81
2022/10/09 15:11:19;;;;;;;1.30;1.00;;;;;;;21.89;31.65;99309.41;5074828;28;41976;-80
2022/10/09 15:13:47;;;;;;;1.10;1.00;;;;;;;21.74;32.03;99317.25;5108455;28;41709;-80
2022/10/09 15:16:18;;;;;;;1.83;0.93;;;;;;;21.44;32.18;99310.38;5091651;28;41574;-81
2022/10/09 15:18:48;;;;;;;1.20;0.93;;;;;;;21.35;32.54;99313.16;5074362;28;40374;-81
2022/10/09 15:21:19;;;;;;;1.20;1.10;;;;;;;21.15;32.97;99310.53;5092452;28;42057;-80
2022/10/09 15:23:47;;;;;;;1.43;1.23;;;;;;;20.85;33.59;99280.41;5091696;28;44264;-81
2022/10/09 15:26:15;;;;;;;1.20;1.10;;;;;;;20.80;34.16;99294.31;5092840;28;42199;-81
2022/10/09 15:28:44;;;;;;;1.30;1.20;;;;;;;20.34;34.79;99247.63;5125855;27;40905;-81
2022/10/09 15:31:20;;;;;;;1.23;1.13;;;;;;;20.46;35.21;99282.44;5091200;28;41029;-81
2022/10/09 15:33:49;;;;;;;1.70;1.13;;;;;;;20.32;34.99;99286.44;5124164;27;42967;-79
2022/10/09 15:36:18;;;;;;;4.33;1.10;;;;;;;20.15;35.40;99282.69;5092159;28;42270;-80
2022/10/09 15:38:46;;;;;;;1.13;1.03;;;;;;;19.96;36.79;99275.50;5090954;28;39805;-80
2022/10/09 15:41:22;;;;;;;2.07;1.20;;;;;;;19.79;37.02;99270.84;5091044;28;42456;-81
2022/10/09 15:43:51;;;;;;;1.53;1.10;;;;;;;19.65;36.62;99264.13;5107756;28;44011;-80
2022/10/09 15:46:19;;;;;;;2.40;1.50;;;;;;;19.43;36.83;99252.75;5108038;28;42138;-82
2022/10/09 15:48:47;;;;;;;2.40;1.20;;;;;;;19.40;37.17;99261.13;5091173;28;40230;-79
2022/10/09 15:51:15;;;;;;;1.53;1.10;;;;;;;19.25;36.90;99266.91;5107940;28;41922;-81
2022/10/09 15:53:47;;;;;;;2.10;1.30;;;;;;;19.13;36.97;99268.03;5092007;28;42584;-81
2022/10/09 15:56:16;;;;;;;2.10;1.30;;;;;;;19.02;36.66;99271.72;5107661;28;41287;-80
2022/10/09 15:58:44;;;;;;;1.67;1.20;;;;;;;18.92;37.43;99267.28;5073545;28;39053;-80
2022/10/09 16:01:14;;;;;;;2.57;1.10;;;;;;;18.74;38.33;99250.16;5125063;27;41773;-80
2022/10/09 16:03:42;;;;;;;2.40;1.37;;;;;;;18.61;38.08;99261.16;5073456;28;42040;-79
2022/10/09 16:06:12;;;;;;;2.63;1.27;;;;;;;18.52;37.89;99261.94;5090074;28;40853;-80